createdAt,value
2022-09-29T00:00:08.399Z,18.89
2022-09-29T00:00:20.382Z,18.90
2022-09-29T00:00:32.378Z,18.90
2022-09-29T00:00:44.378Z,18.90
2022-09-29T00:00:56.394Z,18.90
2022-09-29T00:01:07.380Z,18.90
2022-09-29T00:01:18.369Z,18.90
2022-09-29T00:01:29.401Z,18.89
2022-09-29T00:01:40.422Z,18.89
2022-09-29T00:01:51.469Z,18.89
2022-09-29T00:02:03.380Z,18.89
2022-09-29T00:02:14.468Z,18.89
2022-09-29T00:02:26.333Z,18.89
2022-09-29T00:02:38.403Z,18.88
2022-09-29T00:02:49.396Z,18.90
2022-09-29T00:03:01.482Z,18.89
2022-09-29T00:03:13.430Z,18.88
2022-09-29T00:03:24.393Z,18.89
2022-09-29T00:03:35.417Z,18.88
2022-09-29T00:03:47.381Z,18.89
2022-09-29T00:03:59.380Z,18.89
2022-09-29T00:04:11.371Z,18.90
2022-09-29T00:04:23.367Z,18.89
2022-09-29T00:04:35.358Z,18.89
2022-09-29T00:04:47.357Z,18.89
2022-09-29T00:04:59.351Z,18.89
2022-09-29T00:05:11.352Z,18.89
2022-09-29T00:05:22.354Z,18.88
2022-09-29T00:05:34.346Z,18.89
2022-09-29T00:05:46.337Z,18.89
2022-09-29T00:05:58.342Z,18.89
2022-09-29T00:06:10.349Z,18.89
2022-09-29T00:06:21.345Z,18.89
2022-09-29T00:06:32.352Z,18.89
2022-09-29T00:06:44.352Z,18.89
2022-09-29T00:06:55.356Z,18.90
2022-09-29T00:07:07.355Z,18.89
2022-09-29T00:07:19.347Z,18.89
2022-09-29T00:07:31.345Z,18.90
2022-09-29T00:07:43.337Z,18.88
2022-09-29T00:07:55.335Z,18.89
2022-09-29T00:08:07.334Z,18.88
2022-09-29T00:08:19.321Z,18.89
2022-09-29T00:08:30.318Z,18.89
2022-09-29T00:08:41.413Z,18.89
2022-09-29T00:08:53.402Z,18.88
2022-09-29T00:09:05.410Z,18.88
2022-09-29T00:09:16.459Z,18.89
2022-09-29T00:09:28.407Z,18.89
2022-09-29T00:09:40.404Z,18.88
2022-09-29T00:09:52.399Z,18.88
2022-09-29T00:10:04.399Z,18.90
2022-09-29T00:10:16.398Z,18.88
2022-09-29T00:10:27.397Z,18.89
2022-09-29T00:10:39.390Z,18.88
2022-09-29T00:10:51.387Z,18.89
2022-09-29T00:11:03.393Z,18.88
2022-09-29T00:11:14.385Z,18.88
2022-09-29T00:11:26.375Z,18.88
2022-09-29T00:11:38.378Z,18.88
2022-09-29T00:11:50.363Z,18.88
2022-09-29T00:12:02.359Z,18.88
2022-09-29T00:12:13.361Z,18.89
2022-09-29T00:12:25.359Z,18.88
2022-09-29T00:12:37.354Z,18.89
2022-09-29T00:12:49.348Z,18.89
2022-09-29T00:13:00.349Z,18.89
2022-09-29T00:13:12.354Z,18.88
2022-09-29T00:13:23.369Z,18.86
2022-09-29T00:13:34.370Z,18.89
2022-09-29T00:13:46.370Z,18.89
2022-09-29T00:13:57.374Z,18.86
2022-09-29T00:14:09.361Z,18.89
2022-09-29T00:14:21.405Z,18.88
2022-09-29T00:14:33.365Z,18.89
2022-09-29T00:14:47.875Z,18.89
2022-09-29T00:14:56.379Z,18.88
2022-09-29T00:15:07.385Z,18.86
2022-09-29T00:15:19.381Z,18.88
2022-09-29T00:15:31.369Z,18.88
2022-09-29T00:15:43.367Z,18.89
2022-09-29T00:15:55.396Z,18.89
2022-09-29T00:16:07.444Z,18.88
2022-09-29T00:16:18.472Z,18.89
2022-09-29T00:16:30.464Z,18.86
2022-09-29T00:16:42.402Z,18.89
2022-09-29T00:16:54.333Z,18.88
2022-09-29T00:17:06.336Z,18.88
2022-09-29T00:17:18.329Z,18.90
2022-09-29T00:17:30.329Z,18.89
2022-09-29T00:18:02.730Z,18.88
2022-09-29T00:18:14.237Z,18.88
2022-09-29T00:18:14.814Z,18.88
2022-09-29T00:18:18.349Z,18.88
2022-09-29T00:18:29.338Z,18.88
2022-09-29T00:18:41.333Z,18.88
2022-09-29T00:18:52.338Z,18.88
2022-09-29T00:19:04.336Z,18.88
2022-09-29T00:19:16.335Z,18.89
2022-09-29T00:19:28.326Z,18.88
2022-09-29T00:19:40.320Z,18.88
2022-09-29T00:19:51.409Z,18.88
2022-09-29T00:20:03.411Z,18.88
2022-09-29T00:20:14.411Z,18.88
2022-09-29T00:20:26.315Z,18.89
2022-09-29T00:20:37.407Z,18.89
2022-09-29T00:20:49.405Z,18.88
2022-09-29T00:21:01.435Z,18.89
2022-09-29T00:21:13.314Z,18.88
2022-09-29T00:21:24.402Z,18.88
2022-09-29T00:21:35.405Z,18.89
2022-09-29T00:21:47.409Z,18.86
2022-09-29T00:21:59.403Z,18.90
2022-09-29T00:22:11.396Z,18.88
2022-09-29T00:22:23.398Z,18.88
2022-09-29T00:22:35.386Z,18.88
2022-09-29T00:22:46.383Z,18.89
2022-09-29T00:22:58.391Z,18.89
2022-09-29T00:23:10.387Z,18.90
2022-09-29T00:23:22.393Z,18.89
2022-09-29T00:23:34.387Z,18.89
2022-09-29T00:23:46.394Z,18.89
2022-09-29T00:23:57.391Z,18.90
2022-09-29T00:24:09.402Z,18.88
2022-09-29T00:24:20.479Z,18.89
2022-09-29T00:24:32.354Z,18.88
2022-09-29T00:24:43.358Z,18.90
2022-09-29T00:24:55.386Z,18.89
2022-09-29T00:25:06.381Z,18.88
2022-09-29T00:25:17.397Z,18.88
2022-09-29T00:25:29.383Z,18.88
2022-09-29T00:25:40.398Z,18.88
2022-09-29T00:25:51.389Z,18.89
2022-09-29T00:26:03.401Z,18.88
2022-09-29T00:26:14.405Z,18.88
2022-09-29T00:26:26.406Z,18.88
2022-09-29T00:26:37.313Z,18.88
2022-09-29T00:26:48.401Z,18.89
2022-09-29T00:27:00.393Z,18.88
2022-09-29T00:27:12.397Z,18.89
2022-09-29T00:27:23.396Z,18.89
2022-09-29T00:27:35.395Z,18.88
2022-09-29T00:27:46.398Z,18.88
2022-09-29T00:27:58.387Z,18.88
2022-09-29T00:28:10.384Z,18.88
2022-09-29T00:28:22.385Z,18.88
2022-09-29T00:28:34.375Z,18.89
2022-09-29T00:28:46.374Z,18.88
2022-09-29T00:28:57.373Z,18.89
2022-09-29T00:29:09.379Z,18.88
2022-09-29T00:29:20.376Z,18.89
2022-09-29T00:29:32.369Z,18.88
2022-09-29T00:29:43.376Z,18.90
2022-09-29T00:29:55.365Z,18.89
2022-09-29T00:30:07.360Z,18.89
2022-09-29T00:30:18.364Z,18.89
2022-09-29T00:30:29.365Z,18.88
2022-09-29T00:30:41.370Z,18.86
2022-09-29T00:30:52.377Z,18.88
2022-09-29T00:31:04.428Z,18.89
2022-09-29T00:31:16.479Z,18.89
2022-09-29T00:31:28.369Z,18.88
2022-09-29T00:31:39.383Z,18.88
2022-09-29T00:31:50.408Z,18.89
2022-09-29T00:32:01.461Z,18.88
2022-09-29T00:32:13.394Z,18.86
2022-09-29T00:32:24.399Z,18.88
2022-09-29T00:32:36.398Z,18.88
2022-09-29T00:32:48.396Z,18.86
2022-09-29T00:33:00.397Z,18.89
2022-09-29T00:33:12.385Z,18.89
2022-09-29T00:33:23.391Z,18.88
2022-09-29T00:33:35.388Z,18.88
2022-09-29T00:33:47.391Z,18.88
2022-09-29T00:33:59.377Z,18.88
2022-09-29T00:34:11.407Z,18.86
2022-09-29T00:34:22.392Z,18.89
2022-09-29T00:34:34.382Z,18.89
2022-09-29T00:34:46.381Z,18.89
2022-09-29T00:34:58.394Z,18.88
2022-09-29T00:35:09.403Z,18.86
2022-09-29T00:35:21.401Z,18.88
2022-09-29T00:35:32.401Z,18.89
2022-09-29T00:35:44.398Z,18.86
2022-09-29T00:35:55.397Z,18.88
2022-09-29T00:36:07.424Z,18.88
2022-09-29T00:36:19.323Z,18.88
2022-09-29T00:36:30.491Z,18.88
2022-09-29T00:36:41.317Z,18.89
2022-09-29T00:36:52.319Z,18.88
2022-09-29T00:37:03.316Z,18.88
2022-09-29T00:37:15.318Z,18.86
2022-09-29T00:37:27.317Z,18.88
2022-09-29T00:37:38.414Z,18.86
2022-09-29T00:37:50.398Z,18.88
2022-09-29T00:38:02.399Z,18.88
2022-09-29T00:38:13.401Z,18.88
2022-09-29T00:38:25.397Z,18.88
2022-09-29T00:38:37.390Z,18.86
2022-09-29T00:38:49.395Z,18.88
2022-09-29T00:39:00.409Z,18.88
2022-09-29T00:39:12.399Z,18.88
2022-09-29T00:39:24.398Z,18.88
2022-09-29T00:39:36.391Z,18.88
2022-09-29T00:39:48.387Z,18.86
2022-09-29T00:40:00.392Z,18.88
2022-09-29T00:40:12.392Z,18.86
2022-09-29T00:40:24.431Z,18.88
2022-09-29T00:40:35.424Z,18.84
2022-09-29T00:40:47.445Z,18.86
2022-09-29T00:40:59.441Z,18.88
2022-09-29T00:41:11.396Z,18.88
2022-09-29T00:41:22.389Z,18.86
2022-09-29T00:41:34.384Z,18.88
2022-09-29T00:41:45.388Z,18.88
2022-09-29T00:41:57.388Z,18.86
2022-09-29T00:42:08.393Z,18.88
2022-09-29T00:42:20.391Z,18.86
2022-09-29T00:42:31.390Z,18.86
2022-09-29T00:42:43.382Z,18.84
2022-09-29T00:42:55.368Z,18.88
2022-09-29T00:43:07.347Z,18.88
2022-09-29T00:43:19.344Z,18.86
2022-09-29T00:43:30.351Z,18.88
2022-09-29T00:43:41.360Z,18.88
2022-09-29T00:43:53.356Z,18.86
2022-09-29T00:44:05.361Z,18.86
2022-09-29T00:44:16.455Z,18.86
2022-09-29T00:44:28.348Z,18.86
2022-09-29T00:44:40.338Z,18.86
2022-09-29T00:44:51.344Z,18.88
2022-09-29T00:45:03.345Z,18.88
2022-09-29T00:45:15.340Z,18.86
2022-09-29T00:45:26.424Z,18.88
2022-09-29T00:45:37.385Z,18.86
2022-09-29T00:45:49.432Z,18.88
2022-09-29T00:46:00.518Z,18.88
2022-09-29T00:46:12.439Z,18.86
2022-09-29T00:46:23.429Z,18.88
2022-09-29T00:46:35.403Z,18.86
2022-09-29T00:46:47.397Z,18.86
2022-09-29T00:46:59.390Z,18.86
2022-09-29T00:47:11.385Z,18.86
2022-09-29T00:47:23.391Z,18.86
2022-09-29T00:47:35.388Z,18.86
2022-09-29T00:47:46.389Z,18.86
2022-09-29T00:47:57.401Z,18.86
2022-09-29T00:48:09.394Z,18.86
2022-09-29T00:48:20.393Z,18.86
2022-09-29T00:48:32.379Z,18.86
2022-09-29T00:48:43.383Z,18.86
2022-09-29T00:48:55.376Z,18.86
2022-09-29T00:49:07.374Z,18.84
2022-09-29T00:49:18.376Z,18.86
2022-09-29T00:49:30.381Z,18.84
2022-09-29T00:49:42.379Z,18.88
2022-09-29T00:49:53.381Z,18.86
2022-09-29T00:50:05.374Z,18.86
2022-09-29T00:50:17.375Z,18.88
2022-09-29T00:50:29.368Z,18.86
2022-09-29T00:50:41.363Z,18.86
2022-09-29T00:50:53.364Z,18.86
2022-09-29T00:51:05.357Z,18.86
2022-09-29T00:51:17.366Z,18.84
2022-09-29T00:51:28.364Z,18.86
2022-09-29T00:51:40.369Z,18.88
2022-09-29T00:51:51.372Z,18.86
2022-09-29T00:52:03.372Z,18.86
2022-09-29T00:52:15.362Z,18.86
2022-09-29T00:52:27.354Z,18.88
2022-09-29T00:52:38.356Z,18.86
2022-09-29T00:52:50.353Z,18.86
2022-09-29T00:53:01.360Z,18.86
2022-09-29T00:53:16.676Z,18.88
2022-09-29T00:53:26.331Z,18.86
2022-09-29T00:53:37.330Z,18.86
2022-09-29T00:53:49.328Z,18.86
2022-09-29T00:54:01.324Z,18.84
2022-09-29T00:54:13.324Z,18.86
2022-09-29T00:54:25.320Z,18.84
2022-09-29T00:54:36.401Z,18.84
2022-09-29T00:54:48.393Z,18.84
2022-09-29T00:55:00.388Z,18.86
2022-09-29T00:55:12.388Z,18.84
2022-09-29T00:55:24.390Z,18.86
2022-09-29T00:55:35.396Z,18.84
2022-09-29T00:55:46.400Z,18.86
2022-09-29T00:55:57.400Z,18.86
2022-09-29T00:56:09.397Z,18.86
2022-09-29T00:56:21.409Z,18.84
2022-09-29T00:56:32.410Z,18.86
2022-09-29T00:56:44.402Z,18.88
2022-09-29T00:56:56.394Z,18.84
2022-09-29T00:57:08.388Z,18.88
2022-09-29T00:57:19.391Z,18.86
2022-09-29T00:57:31.397Z,18.86
2022-09-29T00:57:43.394Z,18.88
2022-09-29T00:57:55.389Z,18.86
2022-09-29T00:58:07.383Z,18.86
2022-09-29T00:58:19.382Z,18.86
2022-09-29T00:58:31.385Z,18.86
2022-09-29T00:58:43.382Z,18.83
2022-09-29T00:58:55.372Z,18.86
2022-09-29T00:59:07.370Z,18.84
2022-09-29T00:59:19.365Z,18.84
2022-09-29T00:59:31.369Z,18.86
2022-09-29T00:59:43.361Z,18.84
2022-09-29T00:59:55.353Z,18.84
2022-09-29T01:00:07.349Z,18.86
2022-09-29T01:00:18.359Z,18.84
2022-09-29T01:00:30.382Z,18.84
2022-09-29T01:00:42.488Z,18.84
2022-09-29T01:00:54.404Z,18.86
2022-09-29T01:01:05.362Z,18.84
2022-09-29T01:01:17.363Z,18.84
2022-09-29T01:01:28.360Z,18.84
2022-09-29T01:01:39.395Z,18.84
2022-09-29T01:01:50.445Z,18.86
2022-09-29T01:02:01.489Z,18.86
2022-09-29T01:02:13.405Z,18.83
2022-09-29T01:02:24.467Z,18.88
2022-09-29T01:02:36.330Z,18.86
2022-09-29T01:02:48.328Z,18.84
2022-09-29T01:03:00.325Z,18.84
2022-09-29T01:03:11.312Z,18.84
2022-09-29T01:03:22.397Z,18.86
2022-09-29T01:03:34.394Z,18.84
2022-09-29T01:03:46.394Z,18.84
2022-09-29T01:03:57.400Z,18.83
2022-09-29T01:04:09.402Z,18.86
2022-09-29T01:04:21.399Z,18.83
2022-09-29T01:04:33.395Z,18.84
2022-09-29T01:04:45.389Z,18.83
2022-09-29T01:04:57.383Z,18.84
2022-09-29T01:05:09.380Z,18.84
2022-09-29T01:05:21.373Z,18.86
2022-09-29T01:05:33.364Z,18.84
2022-09-29T01:05:45.370Z,18.83
2022-09-29T01:05:57.368Z,18.83
2022-09-29T01:06:09.368Z,18.83
2022-09-29T01:06:21.367Z,18.83
2022-09-29T01:06:33.380Z,18.84
2022-09-29T01:06:44.379Z,18.83
2022-09-29T01:06:56.373Z,18.86
2022-09-29T01:07:08.368Z,18.86
2022-09-29T01:07:20.372Z,18.86
2022-09-29T01:07:32.370Z,18.84
2022-09-29T01:07:44.378Z,18.86
2022-09-29T01:07:55.378Z,18.84
2022-09-29T01:08:07.378Z,18.86
2022-09-29T01:08:19.381Z,18.84
2022-09-29T01:08:31.368Z,18.83
2022-09-29T01:08:43.363Z,18.83
2022-09-29T01:08:55.356Z,18.83
2022-09-29T01:09:07.355Z,18.84
2022-09-29T01:09:19.357Z,18.84
2022-09-29T01:09:31.345Z,18.84
2022-09-29T01:09:43.346Z,18.86
2022-09-29T01:09:55.333Z,18.84
2022-09-29T01:10:07.327Z,18.84
2022-09-29T01:10:19.328Z,18.84
2022-09-29T01:10:30.329Z,18.84
2022-09-29T01:10:42.331Z,18.84
2022-09-29T01:10:54.321Z,18.83
2022-09-29T01:11:06.322Z,18.83
2022-09-29T01:11:17.328Z,18.84
2022-09-29T01:11:29.341Z,18.83
2022-09-29T01:11:40.331Z,18.84
2022-09-29T01:11:52.331Z,18.84
2022-09-29T01:12:04.337Z,18.84
2022-09-29T01:12:16.345Z,18.84
2022-09-29T01:12:27.350Z,18.84
2022-09-29T01:12:39.354Z,18.84
2022-09-29T01:12:51.345Z,18.84
2022-09-29T01:13:03.345Z,18.83
2022-09-29T01:13:15.345Z,18.83
2022-09-29T01:13:27.334Z,18.84
2022-09-29T01:13:39.329Z,18.83
2022-09-29T01:13:51.341Z,18.84
2022-09-29T01:14:03.331Z,18.84
2022-09-29T01:14:15.388Z,18.84
2022-09-29T01:14:27.328Z,18.84
2022-09-29T01:14:39.333Z,18.84
2022-09-29T01:14:50.324Z,18.83
2022-09-29T01:15:01.329Z,18.84
2022-09-29T01:15:13.326Z,18.84
2022-09-29T01:15:25.332Z,18.84
2022-09-29T01:15:36.330Z,18.83
2022-09-29T01:15:48.330Z,18.81
2022-09-29T01:16:00.385Z,18.84
2022-09-29T01:16:11.477Z,18.83
2022-09-29T01:16:22.500Z,18.84
2022-09-29T01:16:34.553Z,18.84
2022-09-29T01:16:46.435Z,18.83
2022-09-29T01:16:57.390Z,18.84
2022-09-29T01:17:09.387Z,18.81
2022-09-29T01:17:20.390Z,18.83
2022-09-29T01:17:32.391Z,18.84
2022-09-29T01:17:44.393Z,18.84
2022-09-29T01:17:55.392Z,18.84
2022-09-29T01:18:06.403Z,18.83
2022-09-29T01:18:17.415Z,18.84
2022-09-29T01:18:29.402Z,18.83
2022-09-29T01:18:41.393Z,18.86
2022-09-29T01:18:53.397Z,18.81
2022-09-29T01:19:05.391Z,18.83
2022-09-29T01:19:17.389Z,18.84
2022-09-29T01:19:28.389Z,18.83
2022-09-29T01:19:40.388Z,18.81
2022-09-29T01:19:52.379Z,18.83
2022-09-29T01:20:05.175Z,18.81
2022-09-29T01:20:16.368Z,18.81
2022-09-29T01:20:28.361Z,18.83
2022-09-29T01:20:39.359Z,18.84
2022-09-29T01:20:51.351Z,18.83
2022-09-29T01:21:03.354Z,18.83
2022-09-29T01:21:15.358Z,18.83
2022-09-29T01:21:26.373Z,18.83
2022-09-29T01:21:37.368Z,18.84
2022-09-29T01:21:48.368Z,18.84
2022-09-29T01:22:00.375Z,18.83
2022-09-29T01:22:12.376Z,18.83
2022-09-29T01:22:23.396Z,18.83
2022-09-29T01:22:34.403Z,18.83
2022-09-29T01:22:45.412Z,18.83
2022-09-29T01:22:56.324Z,18.83
2022-09-29T01:23:07.339Z,18.84
2022-09-29T01:23:18.358Z,18.84
2022-09-29T01:23:29.358Z,18.84
2022-09-29T01:23:40.396Z,18.81
2022-09-29T01:23:51.404Z,18.84
2022-09-29T01:24:02.420Z,18.83
2022-09-29T01:24:14.346Z,18.84
2022-09-29T01:24:25.340Z,18.81
2022-09-29T01:24:36.341Z,18.84
2022-09-29T01:24:47.347Z,18.83
2022-09-29T01:24:58.365Z,18.83
2022-09-29T01:25:09.370Z,18.84
2022-09-29T01:25:21.381Z,18.83
2022-09-29T01:25:32.381Z,18.83
2022-09-29T01:25:43.390Z,18.83
2022-09-29T01:25:54.398Z,18.83
2022-09-29T01:26:05.408Z,18.84
2022-09-29T01:26:17.334Z,18.84
2022-09-29T01:26:28.377Z,18.83
2022-09-29T01:26:39.380Z,18.83
2022-09-29T01:26:50.396Z,18.83
2022-09-29T01:27:01.402Z,18.83
2022-09-29T01:27:12.404Z,18.84
2022-09-29T01:27:23.309Z,18.83
2022-09-29T01:27:34.399Z,18.83
2022-09-29T01:27:45.412Z,18.84
2022-09-29T01:27:57.332Z,18.84
2022-09-29T01:28:08.344Z,18.84
2022-09-29T01:28:19.359Z,18.83
2022-09-29T01:28:30.368Z,18.84
2022-09-29T01:28:41.365Z,18.83
2022-09-29T01:28:52.378Z,18.83
2022-09-29T01:29:03.412Z,18.84
2022-09-29T01:29:14.316Z,18.81
2022-09-29T01:29:25.321Z,18.84
2022-09-29T01:29:37.329Z,18.83
2022-09-29T01:29:48.336Z,18.83
2022-09-29T01:29:59.342Z,18.83
2022-09-29T01:30:10.355Z,18.84
2022-09-29T01:30:21.365Z,18.83
2022-09-29T01:30:32.369Z,18.83
2022-09-29T01:30:43.383Z,18.81
2022-09-29T01:30:54.406Z,18.83
2022-09-29T01:31:05.449Z,18.83
2022-09-29T01:31:16.439Z,18.83
2022-09-29T01:31:27.516Z,18.83
2022-09-29T01:31:39.520Z,18.81
2022-09-29T01:31:51.467Z,18.83
2022-09-29T01:32:03.371Z,18.84
2022-09-29T01:32:14.379Z,18.83
2022-09-29T01:32:25.378Z,18.83
2022-09-29T01:32:37.368Z,18.83
2022-09-29T01:32:49.369Z,18.83
2022-09-29T01:33:00.371Z,18.81
2022-09-29T01:33:12.368Z,18.83
2022-09-29T01:33:24.363Z,18.83
2022-09-29T01:33:36.359Z,18.83
2022-09-29T01:33:47.357Z,18.83
2022-09-29T01:33:58.360Z,18.83
2022-09-29T01:34:09.436Z,18.83
2022-09-29T01:34:21.332Z,18.84
2022-09-29T01:34:32.339Z,18.83
2022-09-29T01:34:44.337Z,18.81
2022-09-29T01:34:56.331Z,18.83
2022-09-29T01:35:08.332Z,18.83
2022-09-29T01:35:20.334Z,18.83
2022-09-29T01:35:32.331Z,18.83
2022-09-29T01:35:44.330Z,18.86
2022-09-29T01:35:55.337Z,18.84
2022-09-29T01:36:07.327Z,18.81
2022-09-29T01:36:19.320Z,18.83
2022-09-29T01:36:31.341Z,18.83
2022-09-29T01:36:42.329Z,18.84
2022-09-29T01:36:53.342Z,18.83
2022-09-29T01:37:04.346Z,18.81
2022-09-29T01:37:16.346Z,18.84
2022-09-29T01:37:28.347Z,18.83
2022-09-29T01:37:39.352Z,18.83
2022-09-29T01:37:51.353Z,18.83
2022-09-29T01:38:03.350Z,18.83
2022-09-29T01:38:15.347Z,18.83
2022-09-29T01:38:27.350Z,18.83
2022-09-29T01:38:39.344Z,18.83
2022-09-29T01:38:51.347Z,18.83
2022-09-29T01:39:03.347Z,18.84
2022-09-29T01:39:15.342Z,18.83
2022-09-29T01:39:26.348Z,18.83
2022-09-29T01:39:38.343Z,18.83
2022-09-29T01:39:50.343Z,18.86
2022-09-29T01:40:02.346Z,18.84
2022-09-29T01:40:14.349Z,18.83
2022-09-29T01:40:25.421Z,18.84
2022-09-29T01:40:36.476Z,18.83
2022-09-29T01:40:48.551Z,18.81
2022-09-29T01:41:00.396Z,18.83
2022-09-29T01:41:11.313Z,18.81
2022-09-29T01:41:23.317Z,18.84
2022-09-29T01:41:34.333Z,18.83
2022-09-29T01:41:46.321Z,18.83
2022-09-29T01:41:58.335Z,18.83
2022-09-29T01:42:09.314Z,18.81
2022-09-29T01:42:20.406Z,18.83
2022-09-29T01:42:32.396Z,18.81
2022-09-29T01:42:43.407Z,18.81
2022-09-29T01:42:55.399Z,18.81
2022-09-29T01:43:07.401Z,18.81
2022-09-29T01:43:19.398Z,18.84
2022-09-29T01:43:31.397Z,18.83
2022-09-29T01:43:43.402Z,18.83
2022-09-29T01:43:55.393Z,18.83
2022-09-29T01:44:07.389Z,18.84
2022-09-29T01:44:19.494Z,18.81
2022-09-29T01:44:31.336Z,18.83
2022-09-29T01:44:43.333Z,18.83
2022-09-29T01:44:55.332Z,18.84
2022-09-29T01:45:07.326Z,18.81
2022-09-29T01:45:19.324Z,18.83
2022-09-29T01:45:30.400Z,18.81
2022-09-29T01:45:41.421Z,18.81
2022-09-29T01:45:53.410Z,18.83
2022-09-29T01:46:05.438Z,18.83
2022-09-29T01:46:16.439Z,18.81
2022-09-29T01:46:27.394Z,18.84
2022-09-29T01:46:39.388Z,18.81
2022-09-29T01:46:51.525Z,18.83
2022-09-29T01:47:03.346Z,18.81
2022-09-29T01:47:15.337Z,18.83
2022-09-29T01:47:26.344Z,18.83
2022-09-29T01:47:38.343Z,18.81
2022-09-29T01:47:49.345Z,18.83
2022-09-29T01:48:01.355Z,18.83
2022-09-29T01:48:12.353Z,18.81
2022-09-29T01:48:23.356Z,18.83
2022-09-29T01:48:35.344Z,18.81
2022-09-29T01:48:47.339Z,18.81
2022-09-29T01:48:58.354Z,18.83
2022-09-29T01:49:10.345Z,18.81
2022-09-29T01:49:21.354Z,18.81
2022-09-29T01:49:33.345Z,18.81
2022-09-29T01:49:45.336Z,18.80
2022-09-29T01:49:57.330Z,18.83
2022-09-29T01:50:09.337Z,18.83
2022-09-29T01:50:21.330Z,18.81
2022-09-29T01:50:33.362Z,18.81
2022-09-29T01:50:45.333Z,18.81
2022-09-29T01:50:56.336Z,18.83
2022-09-29T01:51:08.324Z,18.83
2022-09-29T01:51:20.333Z,18.81
2022-09-29T01:51:32.334Z,18.83
2022-09-29T01:51:44.319Z,18.83
2022-09-29T01:51:55.419Z,18.81
2022-09-29T01:52:07.405Z,18.83
2022-09-29T01:52:19.403Z,18.83
2022-09-29T01:52:30.406Z,18.81
2022-09-29T01:52:41.404Z,18.83
2022-09-29T01:52:53.397Z,18.81
2022-09-29T01:53:05.401Z,18.83
2022-09-29T01:53:17.411Z,18.83
2022-09-29T01:53:29.392Z,18.81
2022-09-29T01:53:40.394Z,18.81
2022-09-29T01:53:52.389Z,18.81
2022-09-29T01:54:04.382Z,18.81
2022-09-29T01:54:16.380Z,18.83
2022-09-29T01:54:27.388Z,18.81
2022-09-29T01:54:39.382Z,18.81
2022-09-29T01:54:51.380Z,18.83
2022-09-29T01:55:03.383Z,18.83
2022-09-29T01:55:15.389Z,18.81
2022-09-29T01:55:27.390Z,18.83
2022-09-29T01:55:39.387Z,18.83
2022-09-29T01:55:51.385Z,18.81
2022-09-29T01:56:02.376Z,18.83
2022-09-29T01:56:14.374Z,18.81
2022-09-29T01:56:26.372Z,18.83
2022-09-29T01:56:37.361Z,18.83
2022-09-29T01:56:48.370Z,18.83
2022-09-29T01:57:00.367Z,18.80
2022-09-29T01:57:12.372Z,18.81
2022-09-29T01:57:24.373Z,18.81
2022-09-29T01:57:36.378Z,18.83
2022-09-29T01:57:48.376Z,18.81
2022-09-29T01:58:00.375Z,18.81
2022-09-29T01:58:12.374Z,18.83
2022-09-29T01:58:23.378Z,18.83
2022-09-29T01:58:34.377Z,18.81
2022-09-29T01:58:46.371Z,18.84
2022-09-29T01:58:58.364Z,18.83
2022-09-29T01:59:10.359Z,18.81
2022-09-29T01:59:22.351Z,18.83
2022-09-29T01:59:34.346Z,18.81
2022-09-29T01:59:46.345Z,18.83
2022-09-29T01:59:58.351Z,18.83
2022-09-29T02:00:10.346Z,18.83
2022-09-29T02:00:21.349Z,18.81
2022-09-29T02:00:32.459Z,18.81
2022-09-29T02:00:43.436Z,18.83
2022-09-29T02:00:55.481Z,18.83
2022-09-29T02:01:07.417Z,18.81
2022-09-29T02:01:19.422Z,18.83
2022-09-29T02:01:30.392Z,18.81
2022-09-29T02:01:41.464Z,18.83
2022-09-29T02:01:55.273Z,18.83
2022-09-29T02:02:05.384Z,18.81
2022-09-29T02:02:16.391Z,18.83
2022-09-29T02:02:28.407Z,18.84
2022-09-29T02:02:39.365Z,18.83
2022-09-29T02:02:51.364Z,18.81
2022-09-29T02:03:03.364Z,18.81
2022-09-29T02:03:14.368Z,18.80
2022-09-29T02:03:26.376Z,18.80
2022-09-29T02:03:38.374Z,18.83
2022-09-29T02:03:50.379Z,18.81
2022-09-29T02:04:01.380Z,18.83
2022-09-29T02:04:13.388Z,18.83
2022-09-29T02:04:25.380Z,18.81
2022-09-29T02:04:37.373Z,18.81
2022-09-29T02:04:48.377Z,18.81
2022-09-29T02:05:00.371Z,18.81
2022-09-29T02:05:12.372Z,18.83
2022-09-29T02:05:24.362Z,18.83
2022-09-29T02:05:36.362Z,18.81
2022-09-29T02:05:48.367Z,18.81
2022-09-29T02:06:00.368Z,18.81
2022-09-29T02:06:12.364Z,18.80
2022-09-29T02:06:24.377Z,18.80
2022-09-29T02:06:35.368Z,18.83
2022-09-29T02:06:46.372Z,18.83
2022-09-29T02:06:57.375Z,18.83
2022-09-29T02:07:09.373Z,18.83
2022-09-29T02:07:21.371Z,18.81
2022-09-29T02:07:33.364Z,18.83
2022-09-29T02:07:45.365Z,18.81
2022-09-29T02:07:57.364Z,18.83
2022-09-29T02:08:09.372Z,18.83
2022-09-29T02:08:20.365Z,18.81
2022-09-29T02:08:32.354Z,18.81
2022-09-29T02:08:44.353Z,18.83
2022-09-29T02:08:56.345Z,18.81
2022-09-29T02:09:07.357Z,18.84
2022-09-29T02:09:19.360Z,18.81
2022-09-29T02:09:31.349Z,18.83
2022-09-29T02:09:43.349Z,18.80
2022-09-29T02:09:55.351Z,18.81
2022-09-29T02:10:07.348Z,18.81
2022-09-29T02:10:18.346Z,18.83
2022-09-29T02:10:29.354Z,18.81
2022-09-29T02:10:40.357Z,18.81
2022-09-29T02:10:52.353Z,18.81
2022-09-29T02:11:04.351Z,18.81
2022-09-29T02:11:16.340Z,18.81
2022-09-29T02:11:27.356Z,18.81
2022-09-29T02:11:38.345Z,18.81
2022-09-29T02:11:50.329Z,18.80
2022-09-29T02:12:02.332Z,18.81
2022-09-29T02:12:14.334Z,18.83
2022-09-29T02:12:26.331Z,18.81
2022-09-29T02:12:37.333Z,18.81
2022-09-29T02:12:49.324Z,18.81
2022-09-29T02:13:01.317Z,18.80
2022-09-29T02:13:12.405Z,18.83
2022-09-29T02:13:24.399Z,18.83
2022-09-29T02:13:35.407Z,18.80
2022-09-29T02:13:47.402Z,18.81
2022-09-29T02:13:59.393Z,18.81
2022-09-29T02:14:10.399Z,18.81
2022-09-29T02:14:21.485Z,18.81
2022-09-29T02:14:32.407Z,18.80
2022-09-29T02:14:44.416Z,18.81
2022-09-29T02:14:56.405Z,18.80
2022-09-29T02:15:08.383Z,18.81
2022-09-29T02:15:20.374Z,18.81
2022-09-29T02:15:31.379Z,18.83
2022-09-29T02:15:43.371Z,18.80
2022-09-29T02:15:55.399Z,18.81
2022-09-29T02:16:07.395Z,18.81
2022-09-29T02:16:19.397Z,18.81
2022-09-29T02:16:30.417Z,18.81
2022-09-29T02:16:41.444Z,18.83
2022-09-29T02:16:52.412Z,18.80
2022-09-29T02:17:04.411Z,18.81
2022-09-29T02:17:16.436Z,18.83
2022-09-29T02:17:28.322Z,18.80
2022-09-29T02:17:40.323Z,18.81
2022-09-29T02:17:51.412Z,18.81
2022-09-29T02:18:03.411Z,18.80
2022-09-29T02:18:15.408Z,18.80
2022-09-29T02:18:27.312Z,18.81
2022-09-29T02:18:38.399Z,18.81
2022-09-29T02:18:50.398Z,18.81
2022-09-29T02:19:01.405Z,18.81
2022-09-29T02:19:13.403Z,18.81
2022-09-29T02:19:25.405Z,18.80
2022-09-29T02:19:37.405Z,18.80
2022-09-29T02:19:49.407Z,18.80
2022-09-29T02:20:00.314Z,18.81
2022-09-29T02:20:11.407Z,18.81
2022-09-29T02:20:22.410Z,18.81
2022-09-29T02:20:34.410Z,18.81
2022-09-29T02:20:46.409Z,18.81
2022-09-29T02:20:58.317Z,18.81
2022-09-29T02:21:09.313Z,18.81
2022-09-29T02:21:20.404Z,18.80
2022-09-29T02:21:32.445Z,18.80
2022-09-29T02:21:43.314Z,18.80
2022-09-29T02:21:54.489Z,18.81
2022-09-29T02:22:06.366Z,18.80
2022-09-29T02:22:17.369Z,18.83
2022-09-29T02:22:29.368Z,18.81
2022-09-29T02:22:41.372Z,18.81
2022-09-29T02:22:53.373Z,18.83
2022-09-29T02:23:05.387Z,18.78
2022-09-29T02:23:17.371Z,18.81
2022-09-29T02:23:28.373Z,18.81
2022-09-29T02:23:39.379Z,18.81
2022-09-29T02:23:51.373Z,18.81
2022-09-29T02:24:03.383Z,18.81
2022-09-29T02:24:14.536Z,18.80
2022-09-29T02:24:26.320Z,18.80
2022-09-29T02:24:38.315Z,18.80
2022-09-29T02:24:49.410Z,18.80
2022-09-29T02:25:01.403Z,18.80
2022-09-29T02:25:13.392Z,18.80
2022-09-29T02:25:25.384Z,18.80
2022-09-29T02:25:37.380Z,18.81
2022-09-29T02:25:48.379Z,18.81
2022-09-29T02:26:00.375Z,18.80
2022-09-29T02:26:12.373Z,18.80
2022-09-29T02:26:24.372Z,18.81
2022-09-29T02:26:36.377Z,18.81
2022-09-29T02:26:47.365Z,18.80
2022-09-29T02:26:59.367Z,18.81
2022-09-29T02:27:11.369Z,18.80
2022-09-29T02:27:22.373Z,18.81
2022-09-29T02:27:34.363Z,18.80
2022-09-29T02:27:46.356Z,18.80
2022-09-29T02:27:58.345Z,18.80
2022-09-29T02:28:10.346Z,18.80
2022-09-29T02:28:21.355Z,18.80
2022-09-29T02:28:33.348Z,18.80
2022-09-29T02:28:45.342Z,18.81
2022-09-29T02:28:57.335Z,18.80
2022-09-29T02:29:09.333Z,18.81
2022-09-29T02:29:20.338Z,18.81
2022-09-29T02:29:32.341Z,18.81
2022-09-29T02:29:44.341Z,18.80
2022-09-29T02:29:56.346Z,18.80
2022-09-29T02:30:08.333Z,18.80